Time;durP1;ratioP1;P1;durP2;ratioP2;P2;SDS_P1;SDS_P2;PMS_P1;PMS_P2;Temp;Humidity;BMP_temperature;BMP_pressure;BME280_temperature;BME280_humidity;BME280_pressure;Samples;Min_cycle;Max_cycle;Signal;HPM_P1;HPM_P2
2022/01/11 00:02:01;;;;;;;0.60;0.60;;;;;;;-142.91;100.00;56616.03;5059876;28;20198;-65
2022/01/11 00:04:29;;;;;;;0.53;0.53;;;;;;;-142.91;100.00;56616.03;5060190;28;20355;-66
2022/01/11 00:06:58;;;;;;;0.30;0.30;;;;;;;-142.91;100.00;56616.03;5059810;28;20672;-64
2022/01/11 00:09:32;;;;;;;0.40;0.40;;;;;;;-142.91;100.00;56616.03;5060028;28;20214;-64
2022/01/11 00:12:01;;;;;;;0.40;0.40;;;;;;;-142.91;100.00;56616.03;5060052;28;20228;-64
2022/01/11 00:14:28;;;;;;;0.50;0.50;;;;;;;-142.91;100.00;56616.03;5060474;28;20268;-64
2022/01/11 00:16:55;;;;;;;0.53;0.53;;;;;;;-142.91;100.00;56616.03;5060736;28;20207;-64
2022/01/11 00:19:22;;;;;;;0.50;0.50;;;;;;;-142.91;100.00;56616.03;5060221;28;20299;-65
2022/01/11 00:21:49;;;;;;;0.50;0.50;;;;;;;-142.91;100.00;56616.03;5060097;28;20238;-64
2022/01/11 00:24:29;;;;;;;0.40;0.40;;;;;;;-142.91;100.00;56616.03;5060027;28;20198;-64
2022/01/11 00:26:57;;;;;;;0.50;0.50;;;;;;;-142.91;100.00;56616.03;5059364;28;20202;-65
2022/01/11 00:29:25;;;;;;;0.50;0.50;;;;;;;-142.91;100.00;56616.03;5059632;28;20664;-64
2022/01/11 00:31:52;;;;;;;0.67;0.67;;;;;;;-142.91;100.00;56616.03;5059362;28;20339;-64
2022/01/11 00:34:21;;;;;;;0.40;0.40;;;;;;;-142.91;100.00;56616.03;5059266;28;20248;-65
2022/01/11 00:36:48;;;;;;;0.40;0.40;;;;;;;-142.91;100.00;56616.03;5059063;28;20274;-65
2022/01/11 00:39:14;;;;;;;0.30;0.30;;;;;;;-142.91;100.00;56616.03;5059779;28;20309;-64
2022/01/11 00:41:43;;;;;;;0.40;0.40;;;;;;;-142.91;100.00;56616.03;5060610;28;20198;-64
2022/01/11 00:44:10;;;;;;;0.50;0.50;;;;;;;-142.91;100.00;56616.03;5060082;28;20225;-65
2022/01/11 00:46:40;;;;;;;2.77;0.50;;;;;;;-142.91;100.00;56616.03;5059146;28;20736;-64
2022/01/11 00:49:08;;;;;;;0.53;0.53;;;;;;;-142.91;100.00;56616.03;5060693;28;20206;-65
2022/01/11 00:51:35;;;;;;;0.40;0.40;;;;;;;-142.91;100.00;56616.03;5058910;28;20258;-65
2022/01/11 00:54:01;;;;;;;0.50;0.50;;;;;;;-142.91;100.00;56616.03;5059081;28;21295;-65
2022/01/11 00:56:28;;;;;;;0.50;0.50;;;;;;;-142.91;100.00;56616.03;5059227;28;21008;-65
2022/01/11 00:58:55;;;;;;;0.50;0.50;;;;;;;-142.91;100.00;56616.03;5059362;28;20260;-65
2022/01/11 01:01:22;;;;;;;0.40;0.40;;;;;;;-142.91;100.00;56616.03;5058626;28;20190;-65
2022/01/11 01:03:50;;;;;;;0.50;0.50;;;;;;;-142.91;100.00;56616.03;5058471;28;20201;-65
2022/01/11 01:06:17;;;;;;;0.60;0.60;;;;;;;-142.91;100.00;56616.03;5059141;28;20241;-64
2022/01/11 01:08:44;;;;;;;0.43;0.43;;;;;;;-142.91;100.00;56616.03;5059408;28;20282;-64
2022/01/11 01:11:12;;;;;;;0.40;0.40;;;;;;;-142.91;100.00;56616.03;5057913;28;20657;-66
2022/01/11 01:13:38;;;;;;;0.40;0.40;;;;;;;-142.91;100.00;56616.03;5059228;28;20229;-63
2022/01/11 01:16:05;;;;;;;0.50;0.50;;;;;;;-142.91;100.00;56616.03;5058440;28;20985;-62
2022/01/11 01:18:33;;;;;;;0.33;0.33;;;;;;;-142.91;100.00;56616.03;5058783;28;20328;-64
2022/01/11 01:21:02;;;;;;;0.83;0.60;;;;;;;-142.91;100.00;56616.03;5058728;28;20297;-65
2022/01/11 01:23:28;;;;;;;0.40;0.40;;;;;;;-142.91;100.00;56616.03;5059694;28;20198;-65
2022/01/11 01:25:56;;;;;;;0.43;0.43;;;;;;;-142.91;100.00;56616.03;5059123;28;20713;-64
2022/01/11 01:28:22;;;;;;;0.60;0.60;;;;;;;-142.91;100.00;56616.03;5058600;28;20287;-65
2022/01/11 01:30:49;;;;;;;0.50;0.50;;;;;;;-142.91;100.00;56616.03;5058382;28;20251;-65
2022/01/11 01:33:16;;;;;;;0.50;0.50;;;;;;;-142.91;100.00;56616.03;5058780;28;20315;-64
2022/01/11 01:35:48;;;;;;;0.50;0.50;;;;;;;-142.91;100.00;56616.03;5058879;28;20238;-65
2022/01/11 01:38:21;;;;;;;0.60;0.60;;;;;;;-142.91;100.00;56616.03;5058113;28;20321;-64
2022/01/11 01:40:48;;;;;;;0.40;0.40;;;;;;;-142.91;100.00;56616.03;5058067;28;20279;-65
2022/01/11 01:43:16;;;;;;;0.40;0.40;;;;;;;-142.91;100.00;56616.03;5059157;28;20202;-65
2022/01/11 01:45:44;;;;;;;0.50;0.50;;;;;;;-142.91;100.00;56616.03;5058510;28;20268;-65
2022/01/11 01:48:12;;;;;;;0.50;0.50;;;;;;;-142.91;100.00;56616.03;5058800;28;20198;-65
2022/01/11 01:50:39;;;;;;;0.63;0.50;;;;;;;-142.91;100.00;56616.03;5059258;28;20773;-65
2022/01/11 01:53:11;;;;;;;0.50;0.50;;;;;;;-142.91;100.00;56616.03;5059248;28;20258;-63
2022/01/11 01:55:40;;;;;;;0.40;0.40;;;;;;;-142.91;100.00;56616.03;5058536;28;20798;-64
2022/01/11 01:58:07;;;;;;;0.50;0.50;;;;;;;-142.91;100.00;56616.03;5059221;28;20302;-64
2022/01/11 02:00:40;;;;;;;0.57;0.57;;;;;;;-142.91;100.00;56616.03;5059476;28;20238;-64
2022/01/11 02:03:10;;;;;;;0.30;0.30;;;;;;;-142.91;100.00;56616.03;5059178;28;20213;-64
2022/01/11 02:05:37;;;;;;;0.50;0.50;;;;;;;-142.91;100.00;56616.03;5060055;28;20205;-64
2022/01/11 02:08:04;;;;;;;0.60;0.60;;;;;;;-142.91;100.00;56616.03;5058875;28;20262;-64
2022/01/11 02:10:31;;;;;;;0.50;0.50;;;;;;;-142.91;100.00;56616.03;5058757;28;20288;-64
2022/01/11 02:13:00;;;;;;;0.57;0.57;;;;;;;-142.91;100.00;56616.03;5059915;28;20334;-64
2022/01/11 02:15:27;;;;;;;0.60;0.60;;;;;;;-142.91;100.00;56616.03;5059345;28;20199;-64
2022/01/11 02:17:54;;;;;;;0.60;0.60;;;;;;;-142.91;100.00;56616.03;5059162;28;20677;-64
2022/01/11 02:20:22;;;;;;;0.50;0.50;;;;;;;-142.91;100.00;56616.03;5059358;28;20206;-63
2022/01/11 02:22:48;;;;;;;0.40;0.40;;;;;;;-142.91;100.00;56616.03;5061387;28;20673;-64
2022/01/11 02:25:15;;;;;;;0.43;0.43;;;;;;;-142.91;100.00;56616.03;5062400;28;20833;-64
2022/01/11 02:27:42;;;;;;;0.50;0.50;;;;;;;-142.91;100.00;56616.03;5062897;28;20271;-64
2022/01/11 02:30:09;;;;;;;0.97;0.93;;;;;;;-142.91;100.00;56616.03;5062675;28;20285;-63
2022/01/11 02:32:48;;;;;;;0.50;0.50;;;;;;;-142.91;100.00;56616.03;5062213;28;20345;-64
2022/01/11 02:35:15;;;;;;;0.53;0.53;;;;;;;-142.91;100.00;56616.03;5061592;28;20326;-64
2022/01/11 02:37:43;;;;;;;0.50;0.50;;;;;;;-142.91;100.00;56616.03;5062325;28;20674;-64
2022/01/11 02:40:11;;;;;;;0.50;0.50;;;;;;;-142.91;100.00;56616.03;5062353;28;20287;-64
2022/01/11 02:42:38;;;;;;;0.40;0.40;;;;;;;-142.91;100.00;56616.03;5062151;28;20688;-64
2022/01/11 02:45:11;;;;;;;0.47;0.47;;;;;;;-142.91;100.00;56616.03;5062482;28;20696;-64
2022/01/11 02:47:38;;;;;;;0.60;0.47;;;;;;;-142.91;100.00;56616.03;5061527;28;21166;-64
2022/01/11 02:50:05;;;;;;;0.50;0.50;;;;;;;-142.91;100.00;56616.03;5061836;28;20681;-64
2022/01/11 02:52:32;;;;;;;0.93;0.80;;;;;;;-142.91;100.00;56616.03;5061919;28;20401;-65
2022/01/11 02:55:01;;;;;;;0.70;0.70;;;;;;;-142.91;100.00;56616.03;5062466;28;20234;-65
2022/01/11 02:57:28;;;;;;;0.60;0.60;;;;;;;-142.91;100.00;56616.03;5062377;28;20245;-65
2022/01/11 02:59:55;;;;;;;0.60;0.60;;;;;;;-142.91;100.00;56616.03;5061880;28;20339;-65
2022/01/11 03:02:21;;;;;;;0.80;0.80;;;;;;;-142.91;100.00;56616.03;5061326;28;20288;-65
2022/01/11 03:04:48;;;;;;;0.60;0.60;;;;;;;-142.91;100.00;56616.03;5062049;28;20398;-65
2022/01/11 03:07:19;;;;;;;0.50;0.50;;;;;;;-142.91;100.00;56616.03;5061927;28;20260;-65
2022/01/11 03:09:59;;;;;;;0.40;0.40;;;;;;;-142.91;100.00;56616.03;5061522;28;20837;-66
2022/01/11 03:12:27;;;;;;;0.50;0.50;;;;;;;-142.91;100.00;56616.03;5061469;28;20307;-65
2022/01/11 03:14:54;;;;;;;0.50;0.50;;;;;;;-142.91;100.00;56616.03;5061519;28;20688;-65
2022/01/11 03:17:21;;;;;;;0.60;0.60;;;;;;;-142.91;100.00;56616.03;5062050;28;20238;-65
2022/01/11 03:19:48;;;;;;;0.50;0.50;;;;;;;-142.91;100.00;56616.03;5061337;28;20750;-65
2022/01/11 03:22:15;;;;;;;0.60;0.60;;;;;;;-142.91;100.00;56616.03;5061343;28;20681;-64
2022/01/11 03:24:44;;;;;;;0.70;0.67;;;;;;;-142.91;100.00;56616.03;5061705;28;20256;-65
2022/01/11 03:27:10;;;;;;;0.43;0.43;;;;;;;-142.91;100.00;56616.03;5061465;28;20747;-65
2022/01/11 03:29:39;;;;;;;0.97;0.97;;;;;;;-142.91;100.00;56616.03;5061311;28;20253;-64
2022/01/11 03:32:08;;;;;;;1.30;1.20;;;;;;;-142.91;100.00;56616.03;5060848;28;20258;-64
2022/01/11 03:34:35;;;;;;;1.70;1.60;;;;;;;-142.91;100.00;56616.03;5060349;28;20238;-65
2022/01/11 03:37:03;;;;;;;1.07;0.97;;;;;;;-142.91;100.00;56616.03;5060560;28;20291;-65
2022/01/11 03:39:30;;;;;;;1.13;1.10;;;;;;;-142.91;100.00;56616.03;5061736;28;20255;-66
2022/01/11 03:41:56;;;;;;;0.60;0.60;;;;;;;-142.91;100.00;56616.03;5061153;28;20237;-63
2022/01/11 03:44:23;;;;;;;0.70;0.70;;;;;;;-142.91;100.00;56616.03;5061191;28;20284;-64
2022/01/11 03:46:51;;;;;;;0.70;0.70;;;;;;;-142.91;100.00;56616.03;5061403;28;20264;-63
2022/01/11 03:49:18;;;;;;;0.87;0.87;;;;;;;-142.91;100.00;56616.03;5060998;28;20238;-64
2022/01/11 03:51:49;;;;;;;0.93;0.93;;;;;;;-142.91;100.00;56616.03;5060697;28;20222;-64
2022/01/11 03:54:23;;;;;;;0.90;0.90;;;;;;;-142.91;100.00;56616.03;5060444;28;20226;-64
2022/01/11 03:56:49;;;;;;;1.00;1.00;;;;;;;-142.91;100.00;56616.03;5060687;28;20211;-63
2022/01/11 03:59:17;;;;;;;0.80;0.80;;;;;;;-142.91;100.00;56616.03;5061340;28;20199;-64
2022/01/11 04:01:44;;;;;;;0.90;0.90;;;;;;;-142.91;100.00;56616.03;5060340;28;20284;-64
2022/01/11 04:04:12;;;;;;;1.13;1.03;;;;;;;-142.91;100.00;56616.03;5061318;28;20226;-64
2022/01/11 04:06:39;;;;;;;1.10;1.10;;;;;;;-142.91;100.00;56616.03;5060217;28;20207;-64
2022/01/11 04:09:08;;;;;;;1.00;1.00;;;;;;;-142.91;100.00;56616.03;5060621;28;20676;-64
2022/01/11 04:11:35;;;;;;;2.20;1.10;;;;;;;-142.91;100.00;56616.03;5060711;28;20259;-64
2022/01/11 04:14:01;;;;;;;1.30;1.30;;;;;;;-142.91;100.00;56616.03;5060107;28;20261;-64
2022/01/11 04:16:30;;;;;;;0.80;0.80;;;;;;;-142.91;100.00;56616.03;5061675;28;20198;-64
2022/01/11 04:18:56;;;;;;;1.10;1.10;;;;;;;-142.91;100.00;56616.03;5060714;28;20242;-64
2022/01/11 04:21:24;;;;;;;1.37;1.10;;;;;;;-142.91;100.00;56616.03;5060255;28;20998;-64
2022/01/11 04:23:53;;;;;;;1.10;1.00;;;;;;;-142.91;100.00;56616.03;5060692;28;20688;-64
2022/01/11 04:26:19;;;;;;;0.83;0.83;;;;;;;-142.91;100.00;56616.03;5061125;28;20323;-64
2022/01/11 04:28:46;;;;;;;0.90;0.90;;;;;;;-142.91;100.00;56616.03;5060666;28;20222;-64
2022/01/11 04:31:13;;;;;;;1.20;1.20;;;;;;;-142.91;100.00;56616.03;5061794;28;20633;-65
2022/01/11 04:33:43;;;;;;;0.87;0.87;;;;;;;-142.91;100.00;56616.03;5060067;28;20265;-64
2022/01/11 04:36:10;;;;;;;1.17;1.10;;;;;;;-142.91;100.00;56616.03;5060439;28;20203;-64
2022/01/11 04:38:39;;;;;;;4.10;1.00;;;;;;;-142.91;100.00;56616.03;5060265;28;20222;-64
2022/01/11 04:41:06;;;;;;;1.90;1.80;;;;;;;-142.91;100.00;56616.03;5059704;28;20230;-65
2022/01/11 04:43:33;;;;;;;2.10;2.00;;;;;;;-142.91;100.00;56616.03;5061020;28;20230;-64
2022/01/11 04:46:00;;;;;;;1.73;1.63;;;;;;;-142.91;100.00;56616.03;5059324;28;20230;-65
2022/01/11 04:48:28;;;;;;;1.40;1.30;;;;;;;-142.91;100.00;56616.03;5060301;28;20206;-65
2022/01/11 04:50:55;;;;;;;1.52;1.42;;;;;;;-142.91;100.00;56616.03;5060195;28;20202;-65
2022/01/11 04:53:21;;;;;;;1.43;1.33;;;;;;;-142.91;100.00;56616.03;5059796;28;20230;-65
2022/01/11 04:55:49;;;;;;;1.60;1.50;;;;;;;-142.91;100.00;56616.03;5059788;28;20242;-65
2022/01/11 04:58:17;;;;;;;1.10;1.00;;;;;;;-142.91;100.00;56616.03;5059397;28;20202;-65
2022/01/11 05:00:44;;;;;;;1.00;1.00;;;;;;;-142.91;100.00;56616.03;5059292;28;21379;-64
2022/01/11 05:03:12;;;;;;;1.40;1.10;;;;;;;-142.91;100.00;56616.03;5059167;28;20738;-65
2022/01/11 05:05:39;;;;;;;1.10;1.10;;;;;;;-142.91;100.00;56616.03;5059182;28;20992;-65
2022/01/11 05:08:06;;;;;;;1.07;1.07;;;;;;;-142.91;100.00;56616.03;5059544;28;20230;-64
2022/01/11 05:10:33;;;;;;;1.50;1.03;;;;;;;-142.91;100.00;56616.03;5059311;28;21144;-64
2022/01/11 05:13:01;;;;;;;1.00;0.90;;;;;;;-142.91;100.00;56616.03;5059760;28;20261;-64
2022/01/11 05:15:28;;;;;;;1.00;1.00;;;;;;;-142.91;100.00;56616.03;5058919;28;20271;-64
2022/01/11 05:17:55;;;;;;;2.43;1.30;;;;;;;-142.91;100.00;56616.03;5059841;28;20198;-64
2022/01/11 05:20:22;;;;;;;0.97;0.97;;;;;;;-142.91;100.00;56616.03;5059534;28;20275;-64
2022/01/11 05:22:49;;;;;;;1.37;1.27;;;;;;;-142.91;100.00;56616.03;5059321;28;20405;-62
2022/01/11 05:25:15;;;;;;;2.53;1.00;;;;;;;-142.91;100.00;56616.03;5059288;28;20256;-64
2022/01/11 05:27:43;;;;;;;1.03;1.00;;;;;;;-142.91;100.00;56616.03;5060246;28;20206;-66
2022/01/11 05:30:13;;;;;;;1.00;1.00;;;;;;;-142.91;100.00;56616.03;5059297;28;20234;-66
2022/01/11 05:32:42;;;;;;;1.13;1.13;;;;;;;-142.91;100.00;56616.03;5059025;28;20226;-65
2022/01/11 05:35:11;;;;;;;1.10;1.00;;;;;;;-142.91;100.00;56616.03;5059730;28;20298;-65
2022/01/11 05:37:38;;;;;;;1.23;1.03;;;;;;;-142.91;100.00;56616.03;5059247;28;20786;-65
2022/01/11 05:40:08;;;;;;;1.20;1.20;;;;;;;-142.91;100.00;56616.03;5059065;28;20697;-65
2022/01/11 05:42:35;;;;;;;0.93;0.93;;;;;;;-142.91;100.00;56616.03;5058964;28;20200;-65
2022/01/11 05:45:02;;;;;;;1.50;1.40;;;;;;;-142.91;100.00;56616.03;5059819;28;20218;-66
2022/01/11 05:47:30;;;;;;;0.90;0.90;;;;;;;-142.91;100.00;56616.03;5059163;28;20202;-65
2022/01/11 05:49:57;;;;;;;0.73;0.73;;;;;;;-142.91;100.00;56616.03;5059425;28;20318;-65
2022/01/11 05:52:23;;;;;;;1.00;0.93;;;;;;;-142.91;100.00;56616.03;5058718;28;20217;-65
2022/01/11 05:54:50;;;;;;;0.70;0.70;;;;;;;-142.91;100.00;56616.03;5059166;28;20400;-65
2022/01/11 05:57:17;;;;;;;0.70;0.70;;;;;;;-142.91;100.00;56616.03;5060946;28;20323;-66
2022/01/11 05:59:44;;;;;;;0.90;0.90;;;;;;;-142.91;100.00;56616.03;5063161;28;20237;-65
2022/01/11 06:02:10;;;;;;;12.37;11.20;;;;;;;-142.91;100.00;56616.03;5063208;28;20319;-65
2022/01/11 06:04:38;;;;;;;0.80;0.80;;;;;;;-142.91;100.00;56616.03;5062971;28;20234;-66
2022/01/11 06:07:08;;;;;;;0.70;0.70;;;;;;;-142.91;100.00;56616.03;5062658;28;20278;-65
2022/01/11 06:09:34;;;;;;;0.67;0.67;;;;;;;-142.91;100.00;56616.03;5062664;28;20198;-66
2022/01/11 06:12:01;;;;;;;0.97;0.97;;;;;;;-142.91;100.00;56616.03;5061987;28;20280;-66
2022/01/11 06:14:28;;;;;;;0.80;0.80;;;;;;;-142.91;100.00;56616.03;5062426;28;20269;-64
2022/01/11 06:16:54;;;;;;;1.27;1.07;;;;;;;-142.91;100.00;56616.03;5062605;28;20685;-65
2022/01/11 06:19:21;;;;;;;1.00;1.00;;;;;;;-142.91;100.00;56616.03;5063716;28;20318;-66
2022/01/11 06:21:50;;;;;;;1.07;1.00;;;;;;;-142.91;100.00;56616.03;5062109;28;21190;-64
2022/01/11 06:24:16;;;;;;;0.90;0.90;;;;;;;-142.91;100.00;56616.03;5061815;28;20233;-64
2022/01/11 06:26:43;;;;;;;1.10;0.80;;;;;;;-142.91;100.00;56616.03;5062504;28;20230;-65
2022/01/11 06:29:10;;;;;;;0.83;0.83;;;;;;;-142.91;100.00;56616.03;5062433;28;20206;-65
2022/01/11 06:31:37;;;;;;;0.90;0.90;;;;;;;-142.91;100.00;56616.03;5062050;28;20693;-64
2022/01/11 06:34:04;;;;;;;1.23;1.20;;;;;;;-142.91;100.00;56616.03;5062473;28;20323;-65
2022/01/11 06:36:32;;;;;;;0.93;0.93;;;;;;;-142.91;100.00;56616.03;5062155;28;20195;-66
2022/01/11 06:39:01;;;;;;;1.17;1.17;;;;;;;-142.91;100.00;56616.03;5061441;28;20322;-64
2022/01/11 06:41:28;;;;;;;1.83;1.70;;;;;;;-142.91;100.00;56616.03;5061897;28;20728;-66
2022/01/11 06:43:55;;;;;;;1.63;1.50;;;;;;;-142.91;100.00;56616.03;5061842;28;20256;-65
2022/01/11 06:46:23;;;;;;;2.10;2.00;;;;;;;-142.91;100.00;56616.03;5062042;28;20260;-65
2022/01/11 06:48:50;;;;;;;1.10;1.10;;;;;;;-142.91;100.00;56616.03;5061780;28;20206;-66
2022/01/11 06:51:17;;;;;;;1.70;1.50;;;;;;;-142.91;100.00;56616.03;5062071;28;20311;-67
2022/01/11 06:53:44;;;;;;;1.80;1.70;;;;;;;-142.91;100.00;56616.03;5061810;28;20233;-65
2022/01/11 06:56:12;;;;;;;1.90;1.70;;;;;;;-142.91;100.00;56616.03;5062615;28;20733;-65
2022/01/11 06:58:39;;;;;;;1.60;1.50;;;;;;;-142.91;100.00;56616.03;5062018;28;20322;-66
2022/01/11 07:01:06;;;;;;;1.60;1.50;;;;;;;-142.91;100.00;56616.03;5061649;28;20203;-65
2022/01/11 07:03:33;;;;;;;1.83;1.73;;;;;;;-142.91;100.00;56616.03;5061784;28;20295;-66
2022/01/11 07:06:00;;;;;;;1.77;1.67;;;;;;;-142.91;100.00;56616.03;5061732;28;20202;-67
2022/01/11 07:08:26;;;;;;;2.00;1.80;;;;;;;-142.91;100.00;56616.03;5060801;28;20358;-66
2022/01/11 07:10:54;;;;;;;1.40;1.30;;;;;;;-142.91;100.00;56616.03;5062127;28;20234;-67
2022/01/11 07:13:23;;;;;;;1.47;1.37;;;;;;;-142.91;100.00;56616.03;5061550;28;20234;-65
2022/01/11 07:15:49;;;;;;;1.37;1.27;;;;;;;-142.91;100.00;56616.03;5061535;28;20234;-65
2022/01/11 07:18:16;;;;;;;1.60;1.50;;;;;;;-142.91;100.00;56616.03;5061201;28;20203;-65
2022/01/11 07:20:43;;;;;;;1.70;1.23;;;;;;;-142.91;100.00;56616.03;5061508;28;20202;-65
2022/01/11 07:23:10;;;;;;;1.43;1.20;;;;;;;-142.91;100.00;56616.03;5062229;28;20323;-64
2022/01/11 07:25:37;;;;;;;1.57;1.47;;;;;;;-142.91;100.00;56616.03;5062240;28;20230;-65
2022/01/11 07:28:05;;;;;;;3.50;1.30;;;;;;;-142.91;100.00;56616.03;5061606;28;21190;-65
2022/01/11 07:30:33;;;;;;;1.50;1.13;;;;;;;-142.91;100.00;56616.03;5061821;28;20230;-66
2022/01/11 07:33:00;;;;;;;1.10;1.10;;;;;;;-142.91;100.00;56616.03;5061194;28;20234;-64
2022/01/11 07:35:27;;;;;;;3.53;1.70;;;;;;;-142.91;100.00;56616.03;5061679;28;20894;-64
2022/01/11 07:37:53;;;;;;;2.07;1.93;;;;;;;-142.91;100.00;56616.03;5061042;28;20226;-65
2022/01/11 07:40:21;;;;;;;1.25;1.23;;;;;;;-142.91;100.00;56616.03;5061320;28;20238;-64
2022/01/11 07:42:49;;;;;;;1.50;1.40;;;;;;;-142.91;100.00;56616.03;5060110;28;21624;-64
2022/01/11 07:45:16;;;;;;;1.37;1.27;;;;;;;-142.91;100.00;56616.03;5060823;28;20758;-65
2022/01/11 07:47:44;;;;;;;1.55;1.45;;;;;;;-142.91;100.00;56616.03;5061146;28;20290;-65
2022/01/11 07:50:12;;;;;;;1.37;1.27;;;;;;;-142.91;100.00;56616.03;5061104;28;20264;-64
2022/01/11 07:52:39;;;;;;;1.93;1.53;;;;;;;-142.91;100.00;56616.03;5060785;28;20264;-65
2022/01/11 07:55:06;;;;;;;1.20;1.20;;;;;;;-142.91;100.00;56616.03;5060689;28;20226;-66
2022/01/11 07:57:33;;;;;;;1.37;1.27;;;;;;;-142.91;100.00;56616.03;5060584;28;20288;-64
2022/01/11 08:00:00;;;;;;;1.60;1.50;;;;;;;-142.91;100.00;56616.03;5060150;28;20234;-65
2022/01/11 08:02:27;;;;;;;1.83;1.33;;;;;;;-142.91;100.00;56616.03;5060554;28;20295;-66
2022/01/11 08:04:55;;;;;;;1.53;1.37;;;;;;;-142.91;100.00;56616.03;5060477;28;20267;-66
2022/01/11 08:07:22;;;;;;;1.33;1.10;;;;;;;-142.91;100.00;56616.03;5060662;28;20344;-64
2022/01/11 08:09:49;;;;;;;1.40;1.30;;;;;;;-142.91;100.00;56616.03;5060684;28;20206;-63
2022/01/11 08:12:15;;;;;;;1.00;0.85;;;;;;;-142.91;100.00;56616.03;5060633;28;20826;-65
2022/01/11 08:14:42;;;;;;;1.30;1.20;;;;;;;-142.91;100.00;56616.03;5061032;28;20785;-65
2022/01/11 08:17:09;;;;;;;1.67;1.58;;;;;;;-142.91;100.00;56616.03;5060626;28;20303;-64
2022/01/11 08:19:36;;;;;;;2.08;1.50;;;;;;;-142.91;100.00;56616.03;5059398;28;20203;-63
2022/01/11 08:22:04;;;;;;;1.42;1.33;;;;;;;-142.91;100.00;56616.03;5060132;28;20363;-65
2022/01/11 08:24:32;;;;;;;3.50;2.20;;;;;;;-142.91;100.00;56616.03;5062172;28;20226;-65
2022/01/11 08:26:59;;;;;;;2.83;2.25;;;;;;;-142.91;100.00;56616.03;5060261;28;20307;-65
2022/01/11 08:29:25;;;;;;;2.93;2.20;;;;;;;-142.91;100.00;56616.03;5059972;28;20248;-65
2022/01/11 08:31:52;;;;;;;4.17;2.47;;;;;;;-142.91;100.00;56616.03;5060058;28;20744;-64
2022/01/11 08:34:19;;;;;;;3.33;2.13;;;;;;;-142.91;100.00;56616.03;5060199;28;20198;-65
2022/01/11 08:36:48;;;;;;;1.83;1.73;;;;;;;-142.91;100.00;56616.03;5060233;28;20738;-66
2022/01/11 08:39:17;;;;;;;1.73;1.63;;;;;;;-142.91;100.00;56616.03;5060744;28;20226;-65
2022/01/11 08:41:45;;;;;;;1.65;1.55;;;;;;;-142.91;100.00;56616.03;5059691;28;20294;-65
2022/01/11 08:44:11;;;;;;;2.53;1.92;;;;;;;-142.91;100.00;56616.03;5059574;28;20733;-65
2022/01/11 08:46:40;;;;;;;1.60;1.50;;;;;;;-142.91;100.00;56616.03;5060475;28;20283;-66
2022/01/11 08:49:07;;;;;;;1.70;1.60;;;;;;;-142.91;100.00;56616.03;5059718;28;20221;-65
2022/01/11 08:51:34;;;;;;;1.40;1.30;;;;;;;-142.91;100.00;56616.03;5059920;28;20251;-64
2022/01/11 08:54:01;;;;;;;1.33;1.20;;;;;;;-142.91;100.00;56616.03;5059539;28;20311;-65
2022/01/11 08:56:30;;;;;;;1.20;1.10;;;;;;;-142.91;100.00;56616.03;5060349;28;20202;-65
2022/01/11 08:58:57;;;;;;;1.90;0.90;;;;;;;-142.91;100.00;56616.03;5060457;28;20241;-64
2022/01/11 09:01:26;;;;;;;1.37;1.27;;;;;;;-142.91;100.00;56616.03;5057879;28;20229;-64
2022/01/11 09:03:53;;;;;;;2.30;1.67;;;;;;;-142.91;100.00;56616.03;5058034;28;20279;-65
2022/01/11 09:06:20;;;;;;;5.37;1.40;;;;;;;-142.91;100.00;56616.03;5060189;28;20669;-65
2022/01/11 09:08:46;;;;;;;2.37;1.30;;;;;;;-142.91;100.00;56616.03;5059268;28;20203;-64
2022/01/11 09:11:13;;;;;;;1.53;1.17;;;;;;;-142.91;100.00;56616.03;5058952;28;20323;-65
2022/01/11 09:13:41;;;;;;;1.50;1.40;;;;;;;-142.91;100.00;56616.03;5059429;28;20230;-65
2022/01/11 09:16:08;;;;;;;1.67;1.57;;;;;;;-142.91;100.00;56616.03;5058921;28;20272;-66
2022/01/11 09:18:35;;;;;;;1.20;1.10;;;;;;;-142.91;100.00;56616.03;5057804;28;20210;-66
2022/01/11 09:21:03;;;;;;;1.57;1.47;;;;;;;-142.91;100.00;56616.03;5057829;28;20202;-65
2022/01/11 09:23:30;;;;;;;1.57;1.47;;;;;;;-142.91;100.00;56616.03;5057520;28;20205;-65
2022/01/11 09:25:57;;;;;;;1.43;1.33;;;;;;;-142.91;100.00;56616.03;5058447;28;20265;-66
2022/01/11 09:28:25;;;;;;;0.93;0.93;;;;;;;-142.91;100.00;56616.03;5058328;28;20688;-64
2022/01/11 09:30:53;;;;;;;1.97;1.77;;;;;;;-142.91;100.00;56616.03;5057921;28;20292;-66
2022/01/11 09:33:20;;;;;;;2.70;2.50;;;;;;;-142.91;100.00;56616.03;5063940;28;21145;-64
2022/01/11 09:35:47;;;;;;;4.17;3.50;;;;;;;-142.91;100.00;56616.03;5063435;28;20234;-65
2022/01/11 09:38:13;;;;;;;1.77;1.67;;;;;;;-142.91;100.00;56616.03;5063223;28;20320;-66
2022/01/11 09:40:40;;;;;;;1.80;1.70;;;;;;;-142.91;100.00;56616.03;5064203;28;20202;-64
2022/01/11 09:43:07;;;;;;;2.83;1.77;;;;;;;-142.91;100.00;56616.03;5063185;28;21689;-65
2022/01/11 09:45:35;;;;;;;2.33;1.70;;;;;;;-142.91;100.00;56616.03;5063551;28;20274;-65
2022/01/11 09:48:03;;;;;;;1.93;1.83;;;;;;;-142.91;100.00;56616.03;5063042;28;20209;-66
2022/01/11 09:50:30;;;;;;;2.77;1.10;;;;;;;-142.91;100.00;56616.03;5064627;28;20198;-66
2022/01/11 09:52:58;;;;;;;4.53;2.37;;;;;;;-142.91;100.00;56616.03;5063553;28;20357;-65
2022/01/11 09:55:24;;;;;;;3.97;1.83;;;;;;;-142.91;100.00;56616.03;5063557;28;20275;-65
2022/01/11 09:57:51;;;;;;;2.57;1.97;;;;;;;-142.91;100.00;56616.03;5063231;28;20295;-66
2022/01/11 10:00:18;;;;;;;1.97;1.87;;;;;;;-142.91;100.00;56616.03;5062974;28;20230;-65
2022/01/11 10:02:46;;;;;;;2.40;2.20;;;;;;;-142.91;100.00;56616.03;5062673;28;20297;-66
2022/01/11 10:05:15;;;;;;;4.30;3.43;;;;;;;-142.91;100.00;56616.03;5063216;28;20594;-65
2022/01/11 10:07:43;;;;;;;6.63;4.17;;;;;;;-142.91;100.00;56616.03;5063438;28;20351;-66
2022/01/11 10:10:17;;;;;;;7.03;2.73;;;;;;;-142.91;100.00;56616.03;5063230;28;21136;-66
2022/01/11 10:12:46;;;;;;;5.57;4.93;;;;;;;-142.91;100.00;56616.03;5062429;28;20206;-67
2022/01/11 10:15:13;;;;;;;15.07;9.27;;;;;;;-142.91;100.00;56616.03;5063182;28;20645;-64
2022/01/11 10:17:42;;;;;;;2.43;2.23;;;;;;;-142.91;100.00;56616.03;5061953;28;20830;-66
2022/01/11 10:20:13;;;;;;;3.00;2.80;;;;;;;-142.91;100.00;56616.03;5063168;28;20565;-64
2022/01/11 10:22:49;;;;;;;2.77;2.17;;;;;;;-142.91;100.00;56616.03;5062820;28;20327;-65
2022/01/11 10:25:17;;;;;;;3.37;1.77;;;;;;;-142.91;100.00;56616.03;5062712;28;20310;-65
2022/01/11 10:27:46;;;;;;;2.13;2.03;;;;;;;-142.91;100.00;56616.03;5065160;28;20271;-65
2022/01/11 10:30:17;;;;;;;3.53;2.60;;;;;;;-142.91;100.00;56616.03;5062573;28;20232;-65
2022/01/11 10:32:46;;;;;;;2.93;1.73;;;;;;;-142.91;100.00;56616.03;5063001;28;20207;-67
2022/01/11 10:35:16;;;;;;;1.27;1.23;;;;;;;-142.91;100.00;56616.03;5062432;28;20878;-65
2022/01/11 10:37:45;;;;;;;4.90;2.53;;;;;;;-142.91;100.00;56616.03;5062628;28;20296;-68
2022/01/11 10:40:17;;;;;;;3.03;2.53;;;;;;;-142.91;100.00;56616.03;5062241;28;20226;-70
2022/01/11 10:42:48;;;;;;;2.53;2.33;;;;;;;-142.91;100.00;56616.03;5061907;28;20198;-66
2022/01/11 10:45:18;;;;;;;2.00;1.80;;;;;;;-142.91;100.00;56616.03;5062949;28;20295;-67
2022/01/11 10:47:47;;;;;;;2.40;2.03;;;;;;;-142.91;100.00;56616.03;5062592;28;20195;-65
2022/01/11 10:50:18;;;;;;;2.90;2.67;;;;;;;-142.91;100.00;56616.03;5062147;28;20221;-67
2022/01/11 10:52:45;;;;;;;1.60;1.50;;;;;;;-142.91;100.00;56616.03;5061669;28;20309;-64
2022/01/11 10:55:16;;;;;;;1.90;1.33;;;;;;;-142.91;100.00;56616.03;5061956;28;20246;-65
2022/01/11 10:57:44;;;;;;;1.93;1.83;;;;;;;-142.91;100.00;56616.03;5063253;28;20293;-65
2022/01/11 11:00:19;;;;;;;2.03;1.53;;;;;;;-142.91;100.00;56616.03;5062148;28;20213;-65
2022/01/11 11:02:50;;;;;;;2.30;1.53;;;;;;;-142.91;100.00;56616.03;5062083;28;20241;-65
2022/01/11 11:05:24;;;;;;;6.63;3.73;;;;;;;-142.91;100.00;56616.03;5063040;28;20691;-66
2022/01/11 11:07:59;;;;;;;2.40;1.97;;;;;;;-142.91;100.00;56616.03;5061980;28;20977;-65
2022/01/11 11:10:38;;;;;;;2.00;1.67;;;;;;;-142.91;100.00;56616.03;5061915;28;21159;-65
2022/01/11 11:13:06;;;;;;;4.87;3.17;;;;;;;-142.91;100.00;56616.03;5060778;28;20230;-66